Time;durP1;ratioP1;P1;durP2;ratioP2;P2;SDS_P1;SDS_P2;PMS_P1;PMS_P2;Temp;Humidity;BMP_temperature;BMP_pressure;BME280_temperature;BME280_humidity;BME280_pressure;Samples;Min_cycle;Max_cycle;Signal;HPM_P1;HPM_P2
2023/08/04 00:01:15;;;;;;;;;;;15.80;77.00;;;;;;4112829;28;20291;-85
2023/08/04 00:03:17;;;;;;;;;;;15.80;77.10;;;;;;4117748;28;19943;-85
2023/08/04 00:05:17;;;;;;;;;;;15.80;77.00;;;;;;4111471;28;19910;-84
2023/08/04 00:07:18;;;;;;;;;;;15.80;77.00;;;;;;4128994;28;20378;-86
2023/08/04 00:09:18;;;;;;;;;;;15.70;77.00;;;;;;4113608;28;19996;-85
2023/08/04 00:11:19;;;;;;;;;;;15.70;77.00;;;;;;4097868;28;20442;-85
2023/08/04 00:13:19;;;;;;;;;;;15.80;77.00;;;;;;4116614;28;19992;-85
2023/08/04 00:15:20;;;;;;;;;;;15.80;77.00;;;;;;4131294;28;19910;-85
2023/08/04 00:17:20;;;;;;;;;;;15.70;77.00;;;;;;4117276;28;19914;-85
2023/08/04 00:19:21;;;;;;;;;;;15.70;77.00;;;;;;4109176;28;20366;-85
2023/08/04 00:21:22;;;;;;;;;;;15.70;77.00;;;;;;4117128;28;19921;-85
2023/08/04 00:23:22;;;;;;;;;;;15.60;76.90;;;;;;4117017;28;19918;-86
2023/08/04 00:25:23;;;;;;;;;;;15.70;77.00;;;;;;4120472;28;20351;-85
2023/08/04 00:27:23;;;;;;;;;;;15.70;77.00;;;;;;4148336;22;20414;-83
2023/08/04 00:29:24;;;;;;;;;;;15.50;76.90;;;;;;4122462;28;19946;-83
2023/08/04 00:31:25;;;;;;;;;;;15.60;76.90;;;;;;4121477;28;19921;-84
2023/08/04 00:33:26;;;;;;;;;;;15.70;77.00;;;;;;4124321;28;19910;-84
2023/08/04 00:35:26;;;;;;;;;;;15.60;77.00;;;;;;4127031;28;20375;-85
2023/08/04 00:37:28;;;;;;;;;;;15.60;77.00;;;;;;4125376;28;20046;-84
2023/08/04 00:39:29;;;;;;;;;;;15.60;77.10;;;;;;4124910;28;20025;-84
2023/08/04 00:41:29;;;;;;;;;;;15.50;77.10;;;;;;4125051;28;19918;-84
2023/08/04 00:43:50;;;;;;;;;;;15.60;77.20;;;;;;4123625;28;19929;-85
2023/08/04 00:46:10;;;;;;;;;;;15.60;77.30;;;;;;4128456;28;19918;-84
2023/08/04 00:48:31;;;;;;;;;;;15.60;77.30;;;;;;4122763;28;19918;-85
2023/08/04 00:50:51;;;;;;;;;;;15.70;77.40;;;;;;4125300;28;19924;-84
2023/08/04 00:53:13;;;;;;;;;;;15.70;77.50;;;;;;4127359;28;19914;-85
2023/08/04 00:55:34;;;;;;;;;;;15.70;77.50;;;;;;4126008;28;19914;-84
2023/08/04 00:57:36;;;;;;;;;;;15.70;77.60;;;;;;4128056;28;19914;-84
2023/08/04 00:59:36;;;;;;;;;;;15.70;77.90;;;;;;4116318;28;19917;-85
2023/08/04 01:01:37;;;;;;;;;;;15.70;77.60;;;;;;4121956;28;19922;-84
2023/08/04 01:03:38;;;;;;;;;;;15.60;77.50;;;;;;4127782;28;19922;-85
2023/08/04 01:05:54;;;;;;;;;;;15.70;77.60;;;;;;4127819;28;20399;-85
2023/08/04 01:08:04;;;;;;;;;;;15.70;77.60;;;;;;4125339;28;20046;-85
2023/08/04 01:10:11;;;;;;;;;;;15.70;77.60;;;;;;4110392;28;19910;-85
2023/08/04 01:12:18;;;;;;;;;;;15.70;77.60;;;;;;4127492;28;19918;-85
2023/08/04 01:14:18;;;;;;;;;;;15.70;77.60;;;;;;4124298;28;19917;-85
2023/08/04 01:16:19;;;;;;;;;;;15.80;77.60;;;;;;4124404;28;19945;-85
2023/08/04 01:18:21;;;;;;;;;;;15.70;77.50;;;;;;4127708;28;20383;-85
2023/08/04 01:20:22;;;;;;;;;;;15.70;77.50;;;;;;4125452;28;19960;-85
2023/08/04 01:22:23;;;;;;;;;;;15.80;77.60;;;;;;4126568;28;19918;-85
2023/08/04 01:24:26;;;;;;;;;;;15.90;77.60;;;;;;4118712;28;20290;-85
2023/08/04 01:26:27;;;;;;;;;;;15.80;77.60;;;;;;4125993;28;19914;-86
2023/08/04 01:28:32;;;;;;;;;;;15.70;77.40;;;;;;4126261;28;20009;-85
2023/08/04 01:30:33;;;;;;;;;;;15.80;77.50;;;;;;4124890;28;19914;-86
2023/08/04 01:32:33;;;;;;;;;;;15.80;77.50;;;;;;4124550;28;19921;-85
2023/08/04 01:34:34;;;;;;;;;;;15.80;77.50;;;;;;4124096;28;19914;-85
2023/08/04 01:36:35;;;;;;;;;;;15.90;77.60;;;;;;4112542;28;19961;-85
2023/08/04 01:38:35;;;;;;;;;;;15.80;77.50;;;;;;4123960;28;19918;-85
2023/08/04 01:40:36;;;;;;;;;;;15.80;77.40;;;;;;4127425;28;20396;-85
2023/08/04 01:42:37;;;;;;;;;;;15.80;77.40;;;;;;4124134;28;19922;-86
2023/08/04 01:44:37;;;;;;;;;;;15.80;77.40;;;;;;4123363;28;19922;-86
2023/08/04 01:46:38;;;;;;;;;;;15.90;77.50;;;;;;4120772;28;19960;-85
2023/08/04 01:48:39;;;;;;;;;;;15.90;77.40;;;;;;4121198;28;20314;-84
2023/08/04 01:50:39;;;;;;;;;;;15.90;77.40;;;;;;4125724;28;19917;-86
2023/08/04 01:52:40;;;;;;;;;;;16.00;77.50;;;;;;4128307;28;19913;-85
2023/08/04 01:54:40;;;;;;;;;;;15.90;77.40;;;;;;4127328;28;19917;-85
2023/08/04 01:57:01;;;;;;;;;;;15.90;77.40;;;;;;4123995;28;19956;-86
2023/08/04 01:59:21;;;;;;;;;;;15.90;77.30;;;;;;4122312;28;19914;-85
2023/08/04 02:01:42;;;;;;;;;;;15.90;77.30;;;;;;4121784;28;19922;-85
2023/08/04 02:04:02;;;;;;;;;;;15.90;77.30;;;;;;4124141;28;19918;-85
2023/08/04 02:06:23;;;;;;;;;;;16.00;77.40;;;;;;4124683;28;20009;-85
2023/08/04 02:08:44;;;;;;;;;;;15.90;77.30;;;;;;4122068;28;19976;-86
2023/08/04 02:11:04;;;;;;;;;;;15.90;78.00;;;;;;4125203;28;19930;-86
2023/08/04 02:13:25;;;;;;;;;;;15.90;77.30;;;;;;4122931;28;19922;-86
2023/08/04 02:15:45;;;;;;;;;;;16.00;77.30;;;;;;4125377;28;19914;-86
2023/08/04 02:18:06;;;;;;;;;;;16.00;77.30;;;;;;4123846;28;19918;-85
2023/08/04 02:20:07;;;;;;;;;;;16.00;77.20;;;;;;4123636;28;19922;-85
2023/08/04 02:22:07;;;;;;;;;;;16.00;77.10;;;;;;4126070;28;19956;-85
2023/08/04 02:24:08;;;;;;;;;;;16.00;77.00;;;;;;4121156;28;19965;-85
2023/08/04 02:26:08;;;;;;;;;;;16.10;77.10;;;;;;4134687;28;19917;-86
2023/08/04 02:28:09;;;;;;;;;;;16.00;77.00;;;;;;4125105;28;20015;-86
2023/08/04 02:30:10;;;;;;;;;;;16.00;77.00;;;;;;4126456;28;20008;-86
2023/08/04 02:32:11;;;;;;;;;;;16.00;77.00;;;;;;4125931;28;19968;-86
2023/08/04 02:34:11;;;;;;;;;;;16.00;77.00;;;;;;4122682;28;19921;-86
2023/08/04 02:36:13;;;;;;;;;;;16.00;77.00;;;;;;4119254;28;19973;-85
2023/08/04 02:38:13;;;;;;;;;;;16.00;77.00;;;;;;4110548;28;19922;-84
2023/08/04 02:40:14;;;;;;;;;;;16.00;77.00;;;;;;4132197;28;19918;-86
2023/08/04 02:42:15;;;;;;;;;;;16.00;77.00;;;;;;4121798;28;20008;-86
2023/08/04 02:44:15;;;;;;;;;;;16.00;77.00;;;;;;4118240;28;19969;-86
2023/08/04 02:46:16;;;;;;;;;;;16.00;77.10;;;;;;4122089;28;19914;-86
2023/08/04 02:48:17;;;;;;;;;;;15.90;77.00;;;;;;4106874;28;19989;-86
2023/08/04 02:50:38;;;;;;;;;;;16.00;77.10;;;;;;4125948;28;19922;-86
2023/08/04 02:52:38;;;;;;;;;;;16.00;77.10;;;;;;4123733;28;20410;-86
2023/08/04 02:54:59;;;;;;;;;;;16.00;77.10;;;;;;4122946;28;19918;-86
2023/08/04 02:57:00;;;;;;;;;;;16.00;77.10;;;;;;4122379;28;19914;-86
2023/08/04 02:59:20;;;;;;;;;;;16.00;77.20;;;;;;4120198;28;20237;-86
2023/08/04 03:01:32;;;;;;;;;;;16.10;77.20;;;;;;4121014;28;19949;-86
2023/08/04 03:03:52;;;;;;;;;;;16.10;77.20;;;;;;4122395;28;19925;-86
2023/08/04 03:06:13;;;;;;;;;;;16.10;77.10;;;;;;4123316;28;19937;-86
2023/08/04 03:08:34;;;;;;;;;;;16.00;77.10;;;;;;4122329;28;19922;-85
2023/08/04 03:10:55;;;;;;;;;;;16.10;77.10;;;;;;4123542;28;19917;-86
2023/08/04 03:13:15;;;;;;;;;;;16.10;77.10;;;;;;4123506;28;19961;-87
2023/08/04 03:15:36;;;;;;;;;;;16.10;77.10;;;;;;4119707;28;19918;-86
2023/08/04 03:17:38;;;;;;;;;;;16.20;77.10;;;;;;4103753;28;19972;-87
2023/08/04 03:19:58;;;;;;;;;;;16.20;77.10;;;;;;4127192;28;19910;-86
2023/08/04 03:22:19;;;;;;;;;;;16.20;77.10;;;;;;4123320;28;19929;-86
2023/08/04 03:24:40;;;;;;;;;;;16.10;77.00;;;;;;4119308;28;19914;-86
2023/08/04 03:27:01;;;;;;;;;;;16.20;77.10;;;;;;4124299;28;19914;-86
2023/08/04 03:29:21;;;;;;;;;;;16.10;77.00;;;;;;4122155;28;19918;-86
2023/08/04 03:31:42;;;;;;;;;;;16.20;77.10;;;;;;4121560;28;19922;-86
2023/08/04 03:34:03;;;;;;;;;;;16.20;77.10;;;;;;4124427;28;19925;-86
2023/08/04 03:36:24;;;;;;;;;;;16.20;77.10;;;;;;4124617;28;19914;-85
2023/08/04 03:38:44;;;;;;;;;;;16.20;77.00;;;;;;4123459;28;19922;-86
2023/08/04 03:41:05;;;;;;;;;;;16.20;77.00;;;;;;4122487;28;19913;-85
2023/08/04 03:43:05;;;;;;;;;;;16.20;77.00;;;;;;4126077;28;20068;-85
2023/08/04 03:45:06;;;;;;;;;;;16.20;76.90;;;;;;4123552;28;19918;-86
2023/08/04 03:47:07;;;;;;;;;;;16.20;76.90;;;;;;4124998;28;19918;-85
2023/08/04 03:49:07;;;;;;;;;;;16.10;76.80;;;;;;4122964;28;19914;-86
2023/08/04 03:51:08;;;;;;;;;;;16.20;76.80;;;;;;4125161;28;19979;-86
2023/08/04 03:53:08;;;;;;;;;;;16.20;76.70;;;;;;4126138;28;19910;-85
2023/08/04 03:55:09;;;;;;;;;;;16.30;76.70;;;;;;4125098;28;19921;-86
2023/08/04 03:57:09;;;;;;;;;;;16.20;76.60;;;;;;4123036;28;19910;-86
2023/08/04 03:59:11;;;;;;;;;;;16.20;76.60;;;;;;4122836;28;19910;-86
2023/08/04 04:01:12;;;;;;;;;;;16.20;76.60;;;;;;4124156;28;19918;-86
2023/08/04 04:03:13;;;;;;;;;;;16.20;76.60;;;;;;4110188;28;20001;-85
2023/08/04 04:05:13;;;;;;;;;;;16.20;76.40;;;;;;4122017;28;19941;-86
2023/08/04 04:07:16;;;;;;;;;;;16.30;76.60;;;;;;4125306;28;20029;-86
2023/08/04 04:09:18;;;;;;;;;;;16.20;76.60;;;;;;4110806;28;19963;-86
2023/08/04 04:11:39;;;;;;;;;;;16.20;76.60;;;;;;4126076;28;19910;-86
2023/08/04 04:14:00;;;;;;;;;;;16.20;76.60;;;;;;4126803;28;19922;-85
2023/08/04 04:16:21;;;;;;;;;;;16.10;76.40;;;;;;4125693;28;19929;-86
2023/08/04 04:18:41;;;;;;;;;;;16.10;76.50;;;;;;4126344;28;19918;-86
2023/08/04 04:21:02;;;;;;;;;;;16.10;76.40;;;;;;4128474;28;19921;-86
2023/08/04 04:23:22;;;;;;;;;;;16.10;76.40;;;;;;4127781;28;19947;-85
2023/08/04 04:25:43;;;;;;;;;;;16.10;76.40;;;;;;4125110;28;19925;-86
2023/08/04 04:28:04;;;;;;;;;;;16.20;76.50;;;;;;4126784;28;19925;-86
2023/08/04 04:30:24;;;;;;;;;;;16.20;76.50;;;;;;4127249;28;19918;-85
2023/08/04 04:32:33;;;;;;;;;;;16.10;76.50;;;;;;4123781;28;20001;-86
2023/08/04 04:34:34;;;;;;;;;;;16.10;76.60;;;;;;4126835;28;19925;-86
2023/08/04 04:36:34;;;;;;;;;;;16.10;76.70;;;;;;4125832;28;20037;-85
2023/08/04 04:38:35;;;;;;;;;;;16.10;76.70;;;;;;4125398;28;19960;-86
2023/08/04 04:40:36;;;;;;;;;;;16.20;76.80;;;;;;4126664;28;19914;-86
2023/08/04 04:42:37;;;;;;;;;;;16.20;76.80;;;;;;4110862;28;19968;-86
2023/08/04 04:44:38;;;;;;;;;;;16.20;76.90;;;;;;4125173;28;19922;-86
2023/08/04 04:46:38;;;;;;;;;;;16.20;76.90;;;;;;4124088;28;19918;-85
2023/08/04 04:48:39;;;;;;;;;;;16.20;77.00;;;;;;4122356;28;19928;-85
2023/08/04 04:50:41;;;;;;;;;;;16.20;77.00;;;;;;4125956;28;19918;-86
2023/08/04 04:52:41;;;;;;;;;;;16.20;77.10;;;;;;4121502;28;19924;-85
2023/08/04 04:54:42;;;;;;;;;;;16.20;77.00;;;;;;4122344;28;19937;-86
2023/08/04 04:56:43;;;;;;;;;;;16.20;76.90;;;;;;4125056;28;19914;-86
2023/08/04 04:59:00;;;;;;;;;;;16.20;76.90;;;;;;4127668;28;19957;-85
2023/08/04 05:01:05;;;;;;;;;;;16.20;76.90;;;;;;4123227;28;20012;-86
2023/08/04 05:03:10;;;;;;;;;;;16.20;76.90;;;;;;4127832;28;19921;-86
2023/08/04 05:05:12;;;;;;;;;;;16.30;77.10;;;;;;4112863;28;20347;-86
2023/08/04 05:07:32;;;;;;;;;;;16.20;77.20;;;;;;4128518;28;19918;-85
2023/08/04 05:09:33;;;;;;;;;;;16.30;77.20;;;;;;4124872;28;19944;-85
2023/08/04 05:11:53;;;;;;;;;;;16.30;77.10;;;;;;4126078;28;19922;-86
2023/08/04 05:14:17;;;;;;;;;;;16.30;77.20;;;;;;4124995;28;20012;-85
2023/08/04 05:16:37;;;;;;;;;;;16.30;77.10;;;;;;4121356;28;19937;-86
2023/08/04 05:19:01;;;;;;;;;;;16.30;77.10;;;;;;4121731;28;19918;-86
2023/08/04 05:21:24;;;;;;;;;;;16.30;77.00;;;;;;4126799;28;19976;-86
2023/08/04 05:23:45;;;;;;;;;;;16.40;77.00;;;;;;4125145;28;19921;-84
2023/08/04 05:26:05;;;;;;;;;;;16.30;77.00;;;;;;4129907;28;20382;-85
2023/08/04 05:28:30;;;;;;;;;;;16.40;77.00;;;;;;4127732;28;19925;-86
2023/08/04 05:30:33;;;;;;;;;;;16.30;76.80;;;;;;4126400;28;20004;-85
2023/08/04 05:32:37;;;;;;;;;;;16.30;76.80;;;;;;4108791;28;19922;-86
2023/08/04 05:34:38;;;;;;;;;;;16.40;76.90;;;;;;4126084;28;19964;-86
2023/08/04 05:36:38;;;;;;;;;;;16.40;76.80;;;;;;4125093;28;19918;-85
2023/08/04 05:38:39;;;;;;;;;;;16.40;76.80;;;;;;4126486;28;20012;-86
2023/08/04 05:40:41;;;;;;;;;;;16.30;76.60;;;;;;4126253;28;19918;-85
2023/08/04 05:43:02;;;;;;;;;;;16.40;76.70;;;;;;4122799;28;19921;-85
2023/08/04 05:45:04;;;;;;;;;;;16.40;76.60;;;;;;4112546;28;19914;-86
2023/08/04 05:47:26;;;;;;;;;;;16.40;76.50;;;;;;4124196;28;19997;-86
2023/08/04 05:49:49;;;;;;;;;;;16.50;76.60;;;;;;4122398;28;20421;-85
2023/08/04 05:52:10;;;;;;;;;;;16.40;76.60;;;;;;4125924;28;19920;-85
2023/08/04 05:54:30;;;;;;;;;;;16.50;76.60;;;;;;4121914;28;19921;-85
2023/08/04 05:56:51;;;;;;;;;;;16.40;76.50;;;;;;4123857;28;19918;-86
2023/08/04 05:59:11;;;;;;;;;;;16.50;76.50;;;;;;4126227;28;19925;-86
2023/08/04 06:01:33;;;;;;;;;;;16.50;76.50;;;;;;4127492;28;19925;-85
2023/08/04 06:03:54;;;;;;;;;;;16.50;76.40;;;;;;4126512;28;19917;-86
2023/08/04 06:06:14;;;;;;;;;;;16.50;76.40;;;;;;4124739;28;20005;-86
2023/08/04 06:08:35;;;;;;;;;;;16.50;76.40;;;;;;4124833;28;19972;-86
2023/08/04 06:10:55;;;;;;;;;;;16.50;76.30;;;;;;4123412;28;19953;-85
2023/08/04 06:13:16;;;;;;;;;;;16.50;76.40;;;;;;4126401;28;19965;-86
2023/08/04 06:15:36;;;;;;;;;;;16.60;76.40;;;;;;4123280;28;19922;-86
2023/08/04 06:17:57;;;;;;;;;;;16.60;76.50;;;;;;4122597;28;19918;-86
2023/08/04 06:20:16;;;;;;;;;;;16.60;76.50;;;;;;4125181;28;19918;-86
2023/08/04 06:22:16;;;;;;;;;;;16.70;76.70;;;;;;4128856;28;20331;-85
2023/08/04 06:24:27;;;;;;;;;;;16.70;76.90;;;;;;4125282;28;19918;-86
2023/08/04 06:26:28;;;;;;;;;;;16.80;77.00;;;;;;4123193;28;19918;-86
2023/08/04 06:28:28;;;;;;;;;;;16.80;77.00;;;;;;4167442;23;20000;-85
2023/08/04 06:30:31;;;;;;;;;;;16.90;77.00;;;;;;4108464;28;19914;-85
2023/08/04 06:32:32;;;;;;;;;;;17.00;77.10;;;;;;4128362;28;20292;-85
2023/08/04 06:34:32;;;;;;;;;;;17.00;77.10;;;;;;4126624;28;19918;-86
2023/08/04 06:36:34;;;;;;;;;;;17.00;77.10;;;;;;4124772;28;20414;-85
2023/08/04 06:38:35;;;;;;;;;;;17.10;76.90;;;;;;4124412;28;19918;-86
2023/08/04 06:40:57;;;;;;;;;;;17.10;76.80;;;;;;4127101;28;19921;-84
2023/08/04 06:42:59;;;;;;;;;;;17.20;76.80;;;;;;4126018;28;19921;-85
2023/08/04 06:45:20;;;;;;;;;;;17.30;76.80;;;;;;4128535;28;20442;-85
2023/08/04 06:47:40;;;;;;;;;;;17.30;76.70;;;;;;4123718;28;19945;-85
2023/08/04 06:50:03;;;;;;;;;;;17.40;76.70;;;;;;4126635;28;20383;-85
2023/08/04 06:52:23;;;;;;;;;;;17.50;76.90;;;;;;4128927;28;19920;-85
2023/08/04 06:54:44;;;;;;;;;;;17.50;76.70;;;;;;4127918;28;20375;-85
2023/08/04 06:57:05;;;;;;;;;;;17.50;76.80;;;;;;4128954;28;19914;-85
2023/08/04 06:59:05;;;;;;;;;;;17.60;76.80;;;;;;4129515;28;19910;-84
2023/08/04 07:01:06;;;;;;;;;;;17.80;76.80;;;;;;4127612;28;19972;-84
2023/08/04 07:03:08;;;;;;;;;;;17.70;76.70;;;;;;4132358;28;19913;-85
2023/08/04 07:05:08;;;;;;;;;;;17.80;76.50;;;;;;4128231;28;19918;-83
2023/08/04 07:07:09;;;;;;;;;;;17.90;76.30;;;;;;4128830;28;19949;-84
2023/08/04 07:09:10;;;;;;;;;;;18.00;75.70;;;;;;4127169;28;19944;-84
2023/08/04 07:11:30;;;;;;;;;;;18.00;75.50;;;;;;4127318;28;20427;-84
2023/08/04 07:13:31;;;;;;;;;;;18.00;75.40;;;;;;4111282;28;19921;-85
2023/08/04 07:15:32;;;;;;;;;;;18.10;75.00;;;;;;4111516;28;19914;-85
2023/08/04 07:17:53;;;;;;;;;;;18.10;74.80;;;;;;4127545;28;20403;-85
2023/08/04 07:20:13;;;;;;;;;;;18.20;74.40;;;;;;4125968;28;19910;-84
2023/08/04 07:22:34;;;;;;;;;;;18.20;73.70;;;;;;4125198;28;20649;-84
2023/08/04 07:24:35;;;;;;;;;;;18.20;73.70;;;;;;4126588;28;19917;-85
2023/08/04 07:26:55;;;;;;;;;;;18.20;72.70;;;;;;4139420;28;20023;-84
2023/08/04 07:29:16;;;;;;;;;;;18.30;71.90;;;;;;4129037;28;20379;-85
2023/08/04 07:31:36;;;;;;;;;;;18.30;72.60;;;;;;4127121;28;20346;-84
2023/08/04 07:33:57;;;;;;;;;;;18.30;72.30;;;;;;4139735;28;20888;-84
2023/08/04 07:36:18;;;;;;;;;;;18.30;72.10;;;;;;4128824;28;20372;-84
2023/08/04 07:38:38;;;;;;;;;;;18.30;71.70;;;;;;4128709;28;20371;-84
2023/08/04 07:40:59;;;;;;;;;;;18.30;71.60;;;;;;4127809;28;20290;-83
2023/08/04 07:43:19;;;;;;;;;;;18.30;71.80;;;;;;4126112;28;20376;-84
2023/08/04 07:45:40;;;;;;;;;;;18.40;71.50;;;;;;4130215;28;20499;-84
2023/08/04 07:47:58;;;;;;;;;;;18.50;71.80;;;;;;4130867;28;19924;-86
2023/08/04 07:49:58;;;;;;;;;;;18.40;71.20;;;;;;4130865;28;19913;-84
2023/08/04 07:51:59;;;;;;;;;;;18.40;71.10;;;;;;4129494;28;19952;-84
2023/08/04 07:54:00;;;;;;;;;;;18.40;71.10;;;;;;4127300;28;19910;-86
2023/08/04 07:56:00;;;;;;;;;;;18.50;70.80;;;;;;4127798;28;19917;-85
2023/08/04 07:58:01;;;;;;;;;;;18.50;70.70;;;;;;4131008;28;19918;-85
2023/08/04 08:00:02;;;;;;;;;;;18.50;70.60;;;;;;4125943;28;19918;-85
2023/08/04 08:02:04;;;;;;;;;;;18.50;70.50;;;;;;4129146;28;19926;-84
2023/08/04 08:04:04;;;;;;;;;;;18.50;70.40;;;;;;4129844;28;19948;-84
2023/08/04 08:06:25;;;;;;;;;;;18.50;70.30;;;;;;4127888;28;20310;-84
2023/08/04 08:08:46;;;;;;;;;;;18.50;70.10;;;;;;4130238;28;19925;-85
2023/08/04 08:10:48;;;;;;;;;;;18.50;70.20;;;;;;4126740;28;19937;-84
2023/08/04 08:13:08;;;;;;;;;;;18.50;70.10;;;;;;4143213;28;20276;-85
2023/08/04 08:15:29;;;;;;;;;;;18.40;70.30;;;;;;4131821;28;21027;-85
2023/08/04 08:17:49;;;;;;;;;;;18.50;70.40;;;;;;4126935;28;20338;-85
2023/08/04 08:20:10;;;;;;;;;;;18.40;70.70;;;;;;4125518;28;19980;-84
2023/08/04 08:22:31;;;;;;;;;;;18.40;70.60;;;;;;4130140;28;19914;-85
2023/08/04 08:24:55;;;;;;;;;;;18.40;70.40;;;;;;4129831;28;20304;-85
2023/08/04 08:27:15;;;;;;;;;;;18.50;70.70;;;;;;4143826;28;20358;-84
2023/08/04 08:29:40;;;;;;;;;;;18.50;71.50;;;;;;4129906;28;20342;-84
2023/08/04 08:31:40;;;;;;;;;;;18.50;70.90;;;;;;4130416;28;20438;-85
2023/08/04 08:33:41;;;;;;;;;;;18.60;71.20;;;;;;4144104;28;19910;-85
2023/08/04 08:35:42;;;;;;;;;;;18.60;71.10;;;;;;4129198;28;20395;-85
2023/08/04 08:37:42;;;;;;;;;;;18.70;71.00;;;;;;4146351;28;19972;-85
2023/08/04 08:39:46;;;;;;;;;;;18.80;71.10;;;;;;4145685;28;19916;-85
2023/08/04 08:42:07;;;;;;;;;;;18.80;71.00;;;;;;4128601;28;20391;-84
2023/08/04 08:44:27;;;;;;;;;;;18.90;71.20;;;;;;4128005;28;20635;-85
2023/08/04 08:46:48;;;;;;;;;;;18.90;71.00;;;;;;4128448;28;20273;-84
2023/08/04 08:49:09;;;;;;;;;;;18.90;70.70;;;;;;4131339;28;19996;-85
2023/08/04 08:51:30;;;;;;;;;;;19.10;70.40;;;;;;4129495;28;20303;-85
2023/08/04 08:53:52;;;;;;;;;;;19.10;70.50;;;;;;4129396;28;19913;-84
2023/08/04 08:56:13;;;;;;;;;;;19.10;70.40;;;;;;4127136;28;20276;-85
2023/08/04 08:58:34;;;;;;;;;;;19.20;69.90;;;;;;4127281;28;19913;-84
2023/08/04 09:00:55;;;;;;;;;;;19.30;69.50;;;;;;4129806;28;20328;-84
2023/08/04 09:03:15;;;;;;;;;;;19.20;68.70;;;;;;4130395;28;20402;-84
2023/08/04 09:05:36;;;;;;;;;;;19.30;67.50;;;;;;4135643;28;19914;-84
2023/08/04 09:07:37;;;;;;;;;;;19.20;67.70;;;;;;4116337;28;20005;-85
2023/08/04 09:09:37;;;;;;;;;;;19.30;67.30;;;;;;4126797;28;19968;-87
2023/08/04 09:11:38;;;;;;;;;;;19.20;67.30;;;;;;4130933;28;19914;-86
2023/08/04 09:13:41;;;;;;;;;;;19.20;67.40;;;;;;4146171;28;19959;-86
2023/08/04 09:15:52;;;;;;;;;;;19.20;67.10;;;;;;4131336;28;19910;-86
2023/08/04 09:17:53;;;;;;;;;;;19.20;67.30;;;;;;4131003;28;19913;-86
2023/08/04 09:19:53;;;;;;;;;;;19.20;67.60;;;;;;4128835;28;19917;-85
2023/08/04 09:22:14;;;;;;;;;;;19.20;67.10;;;;;;4126478;28;19918;-85
2023/08/04 09:24:34;;;;;;;;;;;19.10;67.40;;;;;;4129334;28;20323;-86
2023/08/04 09:26:55;;;;;;;;;;;19.10;67.50;;;;;;4130799;28;19932;-86
2023/08/04 09:29:15;;;;;;;;;;;19.10;67.20;;;;;;4126249;28;20086;-85
2023/08/04 09:31:37;;;;;;;;;;;19.10;67.10;;;;;;4126416;28;19958;-84
2023/08/04 09:33:41;;;;;;;;;;;19.10;66.60;;;;;;4129264;28;20001;-87
2023/08/04 09:35:44;;;;;;;;;;;19.20;67.00;;;;;;4129847;28;19914;-86
2023/08/04 09:37:45;;;;;;;;;;;19.10;66.90;;;;;;4130840;28;19910;-85
2023/08/04 09:39:46;;;;;;;;;;;19.10;67.10;;;;;;4129475;28;19917;-85
2023/08/04 09:41:47;;;;;;;;;;;19.00;66.50;;;;;;4128410;28;19934;-85
2023/08/04 09:44:07;;;;;;;;;;;19.10;67.00;;;;;;4129528;28;20391;-84
2023/08/04 09:46:28;;;;;;;;;;;19.10;67.20;;;;;;4128258;28;19972;-85
2023/08/04 09:48:28;;;;;;;;;;;19.10;67.50;;;;;;4128903;28;19925;-85
2023/08/04 09:50:49;;;;;;;;;;;19.10;67.60;;;;;;4129386;28;19976;-84
2023/08/04 09:53:10;;;;;;;;;;;19.20;67.80;;;;;;4127651;28;19978;-86
2023/08/04 09:55:31;;;;;;;;;;;19.20;67.70;;;;;;4129308;28;19925;-84
2023/08/04 09:57:51;;;;;;;;;;;19.20;67.60;;;;;;4129673;28;19988;-85
2023/08/04 10:00:12;;;;;;;;;;;19.20;67.60;;;;;;4158368;28;19913;-85
2023/08/04 10:02:33;;;;;;;;;;;19.30;67.70;;;;;;4140345;28;19980;-84
2023/08/04 10:04:54;;;;;;;;;;;19.30;66.90;;;;;;4128586;28;19914;-84
2023/08/04 10:07:16;;;;;;;;;;;19.30;67.50;;;;;;4129345;28;20482;-85
2023/08/04 10:09:17;;;;;;;;;;;19.40;67.30;;;;;;4128209;28;20409;-84
2023/08/04 10:11:17;;;;;;;;;;;19.40;67.10;;;;;;4128534;28;19914;-84
2023/08/04 10:13:20;;;;;;;;;;;19.50;65.80;;;;;;4127391;28;19921;-85
2023/08/04 10:15:41;;;;;;;;;;;19.50;65.80;;;;;;4127700;28;19913;-85
2023/08/04 10:18:02;;;;;;;;;;;19.60;66.30;;;;;;4128951;28;19910;-85
2023/08/04 10:20:06;;;;;;;;;;;19.60;66.30;;;;;;4128376;28;20407;-85
2023/08/04 10:22:27;;;;;;;;;;;19.70;66.40;;;;;;4126011;28;19933;-86
2023/08/04 10:24:47;;;;;;;;;;;19.80;66.70;;;;;;4126148;28;19922;-84
2023/08/04 10:27:11;;;;;;;;;;;19.80;66.40;;;;;;4128581;28;19914;-85
2023/08/04 10:29:32;;;;;;;;;;;19.80;66.50;;;;;;4127908;28;19925;-84
2023/08/04 10:31:53;;;;;;;;;;;19.90;65.90;;;;;;4130251;28;19914;-84
2023/08/04 10:34:26;;;;;;;;;;;19.90;65.10;;;;;;4126483;28;20471;-85
2023/08/04 10:36:30;;;;;;;;;;;19.90;64.90;;;;;;4127748;28;20049;-84
2023/08/04 10:38:43;;;;;;;;;;;19.90;64.50;;;;;;4129435;28;19929;-85
2023/08/04 10:41:04;;;;;;;;;;;19.80;64.20;;;;;;4129066;28;19921;-86
2023/08/04 10:43:25;;;;;;;;;;;19.90;64.30;;;;;;4127424;28;19918;-87
2023/08/04 10:45:53;;;;;;;;;;;19.70;64.40;;;;;;4128569;28;19917;-86
2023/08/04 10:48:13;;;;;;;;;;;19.70;64.60;;;;;;4141302;28;19913;-85
2023/08/04 10:50:34;;;;;;;;;;;19.70;64.80;;;;;;4128456;28;19917;-87
2023/08/04 10:52:55;;;;;;;;;;;19.60;65.10;;;;;;4120152;28;19941;-84
2023/08/04 10:55:15;;;;;;;;;;;19.60;65.30;;;;;;4124873;28;19936;-86
2023/08/04 10:57:36;;;;;;;;;;;19.60;65.50;;;;;;4127671;28;19910;-84
2023/08/04 10:59:37;;;;;;;;;;;19.60;65.90;;;;;;4126497;28;19960;-85
2023/08/04 11:01:37;;;;;;;;;;;19.60;66.00;;;;;;4129603;28;19917;-84
2023/08/04 11:03:38;;;;;;;;;;;19.60;66.20;;;;;;4127278;28;19920;-84
2023/08/04 11:05:38;;;;;;;;;;;19.50;66.30;;;;;;4123644;28;19913;-84
2023/08/04 11:07:44;;;;;;;;;;;19.60;66.60;;;;;;4126537;28;19923;-86
2023/08/04 11:09:45;;;;;;;;;;;19.60;66.50;;;;;;4142042;28;19940;-86
2023/08/04 11:11:46;;;;;;;;;;;19.60;66.40;;;;;;4128711;28;19917;-86
2023/08/04 11:13:47;;;;;;;;;;;19.60;66.40;;;;;;4126906;28;19921;-85
2023/08/04 11:15:47;;;;;;;;;;;19.60;66.00;;;;;;4124861;28;19992;-86
2023/08/04 11:17:48;;;;;;;;;;;19.70;66.30;;;;;;4127844;28;19921;-86
2023/08/04 11:20:00;;;;;;;;;;;19.70;66.50;;;;;;4140427;28;20367;-86
2023/08/04 11:22:21;;;;;;;;;;;19.70;66.50;;;;;;4126506;28;19922;-86
2023/08/04 11:24:23;;;;;;;;;;;19.80;66.60;;;;;;4125886;28;20272;-85
2023/08/04 11:26:43;;;;;;;;;;;19.90;66.00;;;;;;4123879;28;19921;-86
2023/08/04 11:29:04;;;;;;;;;;;19.90;65.90;;;;;;4127277;28;19953;-88
2023/08/04 11:31:26;;;;;;;;;;;19.90;64.20;;;;;;4125972;28;19981;-86
2023/08/04 11:33:46;;;;;;;;;;;19.90;64.90;;;;;;4125931;28;19988;-86
2023/08/04 11:36:07;;;;;;;;;;;20.10;64.60;;;;;;4125786;28;19984;-86
2023/08/04 11:38:28;;;;;;;;;;;20.10;64.00;;;;;;4123450;28;19972;-86
2023/08/04 11:40:56;;;;;;;;;;;20.10;64.00;;;;;;4125170;28;20064;-86
2023/08/04 11:42:58;;;;;;;;;;;20.20;63.60;;;;;;4126014;28;19925;-87
2023/08/04 11:44:58;;;;;;;;;;;20.20;63.60;;;;;;4123699;28;19920;-87
2023/08/04 11:47:01;;;;;;;;;;;20.30;63.90;;;;;;4123237;28;19953;-86
2023/08/04 11:49:22;;;;;;;;;;;20.30;63.80;;;;;;4124702;28;20013;-86
2023/08/04 11:51:43;;;;;;;;;;;20.40;63.80;;;;;;4138459;28;19921;-87
2023/08/04 11:54:04;;;;;;;;;;;20.50;63.30;;;;;;4127030;28;19925;-86
2023/08/04 11:56:24;;;;;;;;;;;20.50;62.60;;;;;;4129236;28;19930;-86
2023/08/04 11:58:45;;;;;;;;;;;20.50;61.10;;;;;;4127540;28;19917;-86
2023/08/04 12:00:46;;;;;;;;;;;20.50;60.00;;;;;;4128507;28;20378;-86
2023/08/04 12:02:59;;;;;;;;;;;20.50;59.70;;;;;;4109991;28;20016;-86
2023/08/04 12:05:09;;;;;;;;;;;20.50;59.60;;;;;;4143774;28;20314;-87
2023/08/04 12:07:30;;;;;;;;;;;20.50;59.80;;;;;;4125881;28;19914;-84
2023/08/04 12:09:50;;;;;;;;;;;20.40;59.90;;;;;;4126661;28;19925;-87
2023/08/04 12:12:11;;;;;;;;;;;20.40;59.70;;;;;;4127969;28;20130;-84
2023/08/04 12:14:31;;;;;;;;;;;20.40;60.20;;;;;;4124637;28;19922;-86
2023/08/04 12:17:00;;;;;;;;;;;20.40;60.50;;;;;;4125605;28;19926;-87
2023/08/04 12:19:21;;;;;;;;;;;20.40;60.90;;;;;;4125674;28;19922;-87
2023/08/04 12:21:42;;;;;;;;;;;20.40;61.00;;;;;;4127101;28;20005;-87
2023/08/04 12:24:02;;;;;;;;;;;20.40;60.50;;;;;;4126310;28;19918;-86
2023/08/04 12:26:23;;;;;;;;;;;20.40;60.90;;;;;;4124042;28;19917;-89
2023/08/04 12:28:43;;;;;;;;;;;20.40;60.10;;;;;;4141743;22;19995;-82
2023/08/04 12:30:44;;;;;;;;;;;20.50;59.70;;;;;;4143864;28;20435;-82
2023/08/04 12:32:44;;;;;;;;;;;20.50;59.30;;;;;;4132944;28;19933;-85
2023/08/04 12:34:45;;;;;;;;;;;20.40;59.30;;;;;;4128178;28;19917;-84
2023/08/04 12:36:45;;;;;;;;;;;20.40;59.60;;;;;;4130007;28;19917;-83
2023/08/04 12:38:46;;;;;;;;;;;20.40;59.50;;;;;;4129838;28;20531;-83
2023/08/04 12:40:47;;;;;;;;;;;20.50;59.90;;;;;;4129347;28;20379;-85